Pensacola, FL

10:51 PM CST en Enero 29, 2015 (GMT -0600)
east hills | Change Station
CLOSE
Current Station
Estación meteorológica personal
Location: Pensacola, FL
Altura: 60 ft
Estaciones meteorológicas cercanas

Alt 60 ft 30.43 °N, 87.20 °W | Updated 2 seconds ago

Parcialmente nublado
Parcialmente nublado
62.6 ° F
Sensación térmica 62.6 ° F
N
1.3
Viento Variable Viento desde SSO
Gusts 2.7 mph

Hoy
Alta -- | Baja -- ° F
--% Posibilidad de precipitaciones
Ayer
Alta -- | Baja -- ° F
Precip. -- pul
6:41 AM 5:22 PM
Gibosa creciente, 80% visible
Presión 30.20 pul
Visibilidad 10.0 Millas
Nubes Baja 12000 ft
Punto de rocío 59 ° F
Humedad 87%
Precipitaciones 0.00 pul
Espesor de la nieve No disponible.
UV 0 de una escala de 12
Polen 6.20 de una escala de 12
Calidad del aire No disponible.
Flu Activity No disponible.
METAR KPNS 300353Z 21008KT 10SM FEW120 17/14 A3020 RMK AO2 SLP227 T01670139

More Conditions Fewer Conditions

Presión 30.20 pul
Visibilidad 10.0 Millas
Nubes Baja 12000 ft
Punto de rocío 59 ° F
Humedad 87%
Precipitaciones 0.00 pul
Espesor de la nieve No disponible.
UV 0 de una escala de 12
Polen 6.20 de una escala de 12
Calidad del aire No disponible.
Flu Activity No disponible.
METAR KPNS 300353Z 21008KT 10SM FEW120 17/14 A3020 RMK AO2 SLP227 T01670139

More Conditions Fewer Conditions

10-Day Weather Forecast

Almanac

Astronomía

Jan. 29, 2015 Salida Puesta
Hora real
Crepúsculo civil
Crepúsculo náutico
Crepúsculo astronómico
Luna
Horas de luz
Horas de luz
Tomorrow will be .
, % of the Moon is Illuminated

Extremos de hoy

Máximos del estado Bajos del estado

Community

WunderPhotos

Upload Photos

1,791,712 ¡fotos cargadas!

WunderBlogs® & News

Nearby

Calidad del aire

  Calidad del aire Índice AQ Contaminante
Not available.

Grosos de nieve

Estación Profundido Altura

Actividad de terremotos

Ciudad Distance Mag. Tiempo y dato
Magnitud mínima muestra es 2,5.

Temperaturas de aguas costeras

Lugar Temperatura

Estaciones meteorológicas cercanas